createdAt,value
2019-05-11T00:00:39.429Z,4.40
2019-05-11T00:01:39.413Z,4.10
2019-05-11T00:02:39.415Z,4.20
2019-05-11T00:03:39.435Z,4.10
2019-05-11T00:04:39.379Z,4.30
2019-05-11T00:05:39.373Z,3.90
2019-05-11T00:06:39.357Z,4.30
2019-05-11T00:07:39.388Z,4.40
2019-05-11T00:08:39.336Z,4.10
2019-05-11T00:09:39.326Z,3.80
2019-05-11T00:10:39.316Z,3.90
2019-05-11T00:11:39.330Z,4.30
2019-05-11T00:12:39.292Z,4.30
2019-05-11T00:13:39.283Z,4.50
2019-05-11T00:14:39.272Z,4.20
2019-05-11T00:15:39.263Z,4.60
2019-05-11T00:16:39.248Z,4.20
2019-05-11T00:17:39.239Z,4.30
2019-05-11T00:18:39.229Z,4.00
2019-05-11T00:19:39.217Z,4.10
2019-05-11T00:20:39.209Z,5.00
2019-05-11T00:21:39.199Z,4.70
2019-05-11T00:22:39.186Z,5.20
2019-05-11T00:23:39.180Z,5.40
2019-05-11T00:24:39.173Z,5.60
2019-05-11T00:25:39.152Z,5.80
2019-05-11T00:26:39.142Z,5.60
2019-05-11T00:27:39.131Z,5.80
2019-05-11T00:28:39.120Z,5.30
2019-05-11T00:29:39.160Z,5.40
2019-05-11T00:30:39.099Z,5.60
2019-05-11T00:31:39.091Z,5.40
2019-05-11T00:32:39.077Z,5.60
2019-05-11T00:33:39.067Z,5.30
2019-05-11T00:34:39.056Z,6.00
2019-05-11T00:35:39.047Z,6.20
2019-05-11T00:36:39.040Z,6.00
2019-05-11T00:37:39.024Z,5.90
2019-05-11T00:38:39.012Z,5.40
2019-05-11T00:39:39.002Z,5.60
2019-05-11T00:40:38.991Z,5.90
2019-05-11T00:41:38.981Z,5.00
2019-05-11T00:42:38.972Z,5.30
2019-05-11T00:43:38.961Z,5.90
2019-05-11T00:44:38.949Z,5.40
2019-05-11T00:45:38.937Z,4.90
2019-05-11T00:46:38.928Z,5.40
2019-05-11T00:47:38.915Z,5.30
2019-05-11T00:48:38.907Z,5.40
2019-05-11T00:49:38.895Z,5.30
2019-05-11T00:50:40.065Z,5.20
2019-05-11T00:51:38.873Z,5.40
2019-05-11T00:52:38.866Z,5.90
2019-05-11T00:53:38.851Z,5.70
2019-05-11T00:54:38.841Z,5.50
2019-05-11T00:55:38.831Z,5.40
2019-05-11T00:56:38.820Z,5.20
2019-05-11T00:57:38.808Z,5.20
2019-05-11T00:58:38.802Z,5.10
2019-05-11T00:59:38.787Z,5.60
2019-05-11T01:00:38.789Z,5.80
2019-05-11T01:01:38.765Z,4.80
2019-05-11T01:02:38.755Z,5.30
2019-05-11T01:03:38.745Z,4.70
2019-05-11T01:04:38.734Z,5.10
2019-05-11T01:05:38.721Z,5.00
2019-05-11T01:06:38.714Z,5.10
2019-05-11T01:07:38.701Z,4.80
2019-05-11T01:08:38.689Z,5.40
2019-05-11T01:09:38.678Z,5.00
2019-05-11T01:10:42.815Z,5.40
2019-05-11T01:11:38.659Z,5.10
2019-05-11T01:12:38.649Z,5.30
2019-05-11T01:13:38.636Z,5.00
2019-05-11T01:14:38.624Z,5.20
2019-05-11T01:15:38.613Z,5.90
2019-05-11T01:16:38.605Z,5.20
2019-05-11T01:17:38.608Z,5.10
2019-05-11T01:18:38.581Z,5.40
2019-05-11T01:19:38.571Z,5.60
2019-05-11T01:20:38.564Z,5.40
2019-05-11T01:21:38.549Z,5.00
2019-05-11T01:22:38.548Z,5.40
2019-05-11T01:23:38.527Z,5.30
2019-05-11T01:24:38.518Z,4.90
2019-05-11T01:25:38.507Z,5.60
2019-05-11T01:26:38.499Z,5.10
2019-05-11T01:27:38.498Z,5.00
2019-05-11T01:28:38.475Z,5.60
2019-05-11T01:29:38.467Z,5.60
2019-05-11T01:30:38.948Z,5.50
2019-05-11T01:31:38.455Z,5.40
2019-05-11T01:32:38.431Z,5.60
2019-05-11T01:33:38.423Z,5.10
2019-05-11T01:34:38.454Z,5.30
2019-05-11T01:35:38.430Z,5.30
2019-05-11T01:36:38.391Z,5.40
2019-05-11T01:37:38.377Z,5.90
2019-05-11T01:38:38.365Z,5.40
2019-05-11T01:39:38.377Z,5.70
2019-05-11T01:40:38.346Z,5.30
2019-05-11T01:41:38.337Z,5.20
2019-05-11T01:42:38.323Z,5.30
2019-05-11T01:43:38.313Z,5.50
2019-05-11T01:44:38.303Z,5.20
2019-05-11T01:45:38.291Z,5.20
2019-05-11T01:46:38.280Z,5.40
2019-05-11T01:47:38.270Z,5.60
2019-05-11T01:48:38.260Z,5.30
2019-05-11T01:49:38.249Z,5.70
2019-05-11T01:50:38.244Z,5.40
2019-05-11T01:51:38.226Z,5.70
2019-05-11T01:52:38.219Z,5.90
2019-05-11T01:53:38.205Z,5.80
2019-05-11T01:54:38.193Z,6.00
2019-05-11T01:55:38.184Z,5.40
2019-05-11T01:56:38.173Z,5.80
2019-05-11T01:57:38.166Z,5.30
2019-05-11T01:58:38.151Z,5.90
2019-05-11T01:59:38.142Z,6.30
2019-05-11T02:00:38.130Z,5.80
2019-05-11T02:01:38.119Z,6.20
2019-05-11T02:02:38.115Z,6.20
2019-05-11T02:03:38.101Z,5.90
2019-05-11T02:04:38.087Z,5.80
2019-05-11T02:05:38.077Z,5.80
2019-05-11T02:06:38.065Z,5.80
2019-05-11T02:07:38.056Z,5.60
2019-05-11T02:08:38.044Z,5.90
2019-05-11T02:09:38.032Z,6.00
2019-05-11T02:10:38.027Z,5.70
2019-05-11T02:11:38.013Z,5.90
2019-05-11T02:12:38.003Z,6.00
2019-05-11T02:13:37.990Z,5.70
2019-05-11T02:14:37.982Z,6.40
2019-05-11T02:15:37.971Z,6.80
2019-05-11T02:16:37.963Z,5.80
2019-05-11T02:17:37.950Z,5.70
2019-05-11T02:18:37.936Z,5.70
2019-05-11T02:19:37.925Z,5.70
2019-05-11T02:20:37.915Z,5.90
2019-05-11T02:21:37.903Z,6.10
2019-05-11T02:22:37.894Z,5.90
2019-05-11T02:23:37.883Z,6.70
2019-05-11T02:24:37.875Z,6.40
2019-05-11T02:25:37.860Z,5.90
2019-05-11T02:26:37.853Z,6.90
2019-05-11T02:27:37.843Z,6.90
2019-05-11T02:28:37.829Z,6.50
2019-05-11T02:29:41.191Z,7.00
2019-05-11T02:30:37.823Z,7.30
2019-05-11T02:31:37.798Z,7.40
2019-05-11T02:32:37.789Z,7.90
2019-05-11T02:33:37.783Z,6.90
2019-05-11T02:34:37.767Z,7.30
2019-05-11T02:35:37.757Z,7.80
2019-05-11T02:36:37.747Z,6.90
2019-05-11T02:37:37.738Z,7.10
2019-05-11T02:38:37.727Z,6.80
2019-05-11T02:39:37.713Z,6.80
2019-05-11T02:40:37.702Z,7.20
2019-05-11T02:41:38.309Z,7.10
2019-05-11T02:42:37.682Z,7.40
2019-05-11T02:43:37.670Z,7.30
2019-05-11T02:44:37.659Z,7.20
2019-05-11T02:45:37.650Z,7.40
2019-05-11T02:46:37.706Z,7.10
2019-05-11T02:47:37.629Z,7.00
2019-05-11T02:48:37.615Z,7.50
2019-05-11T02:49:37.608Z,6.40
2019-05-11T02:50:37.615Z,7.30
2019-05-11T02:51:37.585Z,7.20
2019-05-11T02:52:37.578Z,7.30
2019-05-11T02:53:37.563Z,7.60
2019-05-11T02:54:37.552Z,7.50
2019-05-11T02:55:37.546Z,7.50
2019-05-11T02:56:37.532Z,7.60
2019-05-11T02:57:37.538Z,8.20
2019-05-11T02:58:37.512Z,7.60
2019-05-11T02:59:37.501Z,6.90
2019-05-11T03:00:37.488Z,7.50
2019-05-11T03:01:37.478Z,7.20
2019-05-11T03:02:37.466Z,6.70
2019-05-11T03:03:37.457Z,7.00
2019-05-11T03:04:37.451Z,6.90
2019-05-11T03:05:37.436Z,6.50
2019-05-11T03:06:37.452Z,7.30
2019-05-11T03:07:37.417Z,6.60
2019-05-11T03:08:37.405Z,6.90
2019-05-11T03:09:37.394Z,6.90
2019-05-11T03:10:37.385Z,6.60
2019-05-11T03:11:54.190Z,6.80
2019-05-11T03:12:38.361Z,6.90
2019-05-11T03:13:37.361Z,7.10
2019-05-11T03:14:37.343Z,7.10
2019-05-11T03:15:37.330Z,7.80
2019-05-11T03:16:37.318Z,6.90
2019-05-11T03:17:37.312Z,7.10
2019-05-11T03:18:37.307Z,8.50
2019-05-11T03:19:37.286Z,7.80
2019-05-11T03:20:37.277Z,13.90
2019-05-11T03:21:37.274Z,20.10
2019-05-11T03:22:37.255Z,20.40
2019-05-11T03:23:37.243Z,19.40
2019-05-11T03:24:37.233Z,18.90
2019-05-11T03:25:37.224Z,14.00
2019-05-11T03:26:37.212Z,8.70
2019-05-11T03:27:37.206Z,9.00
2019-05-11T03:28:37.190Z,8.10
2019-05-11T03:29:37.182Z,8.60
2019-05-11T03:30:37.182Z,9.00
2019-05-11T03:31:37.159Z,10.10
2019-05-11T03:32:37.149Z,8.40
2019-05-11T03:33:37.139Z,9.50
2019-05-11T03:34:37.137Z,9.40
2019-05-11T03:35:37.120Z,9.30
2019-05-11T03:36:37.108Z,9.40
2019-05-11T03:37:37.092Z,8.90
2019-05-11T03:38:37.085Z,8.10
2019-05-11T03:39:37.078Z,7.60
2019-05-11T03:40:37.062Z,7.90
2019-05-11T03:41:37.051Z,7.50
2019-05-11T03:42:37.042Z,7.20
2019-05-11T03:43:37.031Z,8.20
2019-05-11T03:44:37.020Z,7.90
2019-05-11T03:45:37.009Z,7.00
2019-05-11T03:46:36.996Z,7.80
2019-05-11T03:47:36.986Z,8.10
2019-05-11T03:48:36.975Z,8.10
2019-05-11T03:49:36.965Z,8.40
2019-05-11T03:50:36.954Z,8.20
2019-05-11T03:51:36.975Z,8.40
2019-05-11T03:52:36.935Z,8.90
2019-05-11T03:53:36.920Z,9.70
2019-05-11T03:54:36.926Z,8.50
2019-05-11T03:55:36.901Z,10.40
2019-05-11T03:56:36.888Z,9.50
2019-05-11T03:57:36.879Z,10.20
2019-05-11T03:58:36.869Z,9.50
2019-05-11T03:59:36.857Z,9.00
2019-05-11T04:00:36.848Z,7.80
2019-05-11T04:01:36.841Z,7.70
2019-05-11T04:02:36.830Z,8.50
2019-05-11T04:03:36.812Z,8.00
2019-05-11T04:04:36.815Z,7.90
2019-05-11T04:05:36.803Z,7.60
2019-05-11T04:06:36.783Z,8.40
2019-05-11T04:07:36.773Z,8.20
2019-05-11T04:08:36.760Z,7.30
2019-05-11T04:09:36.752Z,7.60
2019-05-11T04:10:36.739Z,7.40
2019-05-11T04:11:36.753Z,6.90
2019-05-11T04:12:36.717Z,7.10
2019-05-11T04:13:36.707Z,6.70
2019-05-11T04:14:36.695Z,7.30
2019-05-11T04:15:36.684Z,7.50
2019-05-11T04:16:36.681Z,7.00
2019-05-11T04:17:36.663Z,7.10
2019-05-11T04:18:36.656Z,6.60
2019-05-11T04:19:36.640Z,7.10
2019-05-11T04:20:36.631Z,6.60
2019-05-11T04:21:36.624Z,7.20
2019-05-11T04:22:36.610Z,6.80
2019-05-11T04:23:36.597Z,6.90
2019-05-11T04:24:36.591Z,6.90
2019-05-11T04:25:36.578Z,6.30
2019-05-11T04:26:36.567Z,6.60
2019-05-11T04:27:36.555Z,6.60
2019-05-11T04:28:36.544Z,6.00
2019-05-11T04:29:36.534Z,6.90
2019-05-11T04:30:36.524Z,6.30
2019-05-11T04:31:36.513Z,6.70
2019-05-11T04:32:36.503Z,6.70
2019-05-11T04:33:36.491Z,6.60
2019-05-11T04:34:36.479Z,6.40
2019-05-11T04:35:36.473Z,6.00
2019-05-11T04:36:36.460Z,6.20
2019-05-11T04:37:36.464Z,6.20
2019-05-11T04:38:36.437Z,6.50
2019-05-11T04:39:36.425Z,5.90
2019-05-11T04:40:36.425Z,5.90
2019-05-11T04:41:36.409Z,6.40
2019-05-11T04:42:53.293Z,6.70
2019-05-11T04:43:37.383Z,6.30
2019-05-11T04:44:36.375Z,6.50
2019-05-11T04:45:36.362Z,6.80
2019-05-11T04:46:36.360Z,6.30
2019-05-11T04:47:36.452Z,6.00
2019-05-11T04:48:36.330Z,6.10
2019-05-11T04:49:36.318Z,6.00
2019-05-11T04:50:36.308Z,5.80
2019-05-11T04:51:36.299Z,6.00
2019-05-11T04:52:36.287Z,5.70
2019-05-11T04:53:36.278Z,6.10
2019-05-11T04:54:36.271Z,5.60
2019-05-11T04:55:36.254Z,5.40
2019-05-11T04:56:36.244Z,5.70
2019-05-11T04:57:36.233Z,5.50
2019-05-11T04:58:36.223Z,6.10
2019-05-11T04:59:36.215Z,6.10
2019-05-11T05:00:36.199Z,5.90
2019-05-11T05:01:36.194Z,5.60
2019-05-11T05:02:36.177Z,5.70
2019-05-11T05:03:40.746Z,5.40
2019-05-11T05:04:37.156Z,5.40
2019-05-11T05:05:36.152Z,5.50
2019-05-11T05:06:38.840Z,5.90
2019-05-11T05:07:36.128Z,5.50
2019-05-11T05:08:36.117Z,5.90
2019-05-11T05:09:42.404Z,5.70
2019-05-11T05:10:37.094Z,5.20
2019-05-11T05:11:36.595Z,5.40
2019-05-11T05:12:36.071Z,4.90
2019-05-11T05:13:36.060Z,5.10
2019-05-11T05:14:36.049Z,5.60
2019-05-11T05:15:36.039Z,5.90
2019-05-11T05:16:36.029Z,4.70
2019-05-11T05:17:36.017Z,5.10
2019-05-11T05:18:36.012Z,5.20
2019-05-11T05:19:35.996Z,4.90
2019-05-11T05:20:35.986Z,4.90
2019-05-11T05:21:35.980Z,5.10
2019-05-11T05:22:35.965Z,5.20
2019-05-11T05:23:35.957Z,4.80
2019-05-11T05:24:35.948Z,4.40
2019-05-11T05:25:35.936Z,4.70
2019-05-11T05:26:35.920Z,4.60
2019-05-11T05:27:35.911Z,4.60
2019-05-11T05:28:35.899Z,4.70
2019-05-11T05:29:35.895Z,4.70
2019-05-11T05:30:35.882Z,4.80
2019-05-11T05:31:35.866Z,4.40
2019-05-11T05:32:35.876Z,4.10
2019-05-11T05:33:35.858Z,4.70
2019-05-11T05:34:35.834Z,5.40
2019-05-11T05:35:35.827Z,4.20
2019-05-11T05:36:35.814Z,5.00
2019-05-11T05:37:35.800Z,4.80
2019-05-11T05:38:35.789Z,4.90
2019-05-11T05:39:35.778Z,5.10
2019-05-11T05:40:35.769Z,4.80
2019-05-11T05:41:35.758Z,4.90
2019-05-11T05:42:35.746Z,4.50
2019-05-11T05:43:35.735Z,4.30
2019-05-11T05:44:35.725Z,4.10
2019-05-11T05:45:35.717Z,4.40
2019-05-11T05:46:35.703Z,4.20
2019-05-11T05:47:35.691Z,4.30
2019-05-11T05:48:35.683Z,4.20
2019-05-11T05:49:35.675Z,3.50
2019-05-11T05:50:35.659Z,3.90
2019-05-11T05:51:35.648Z,4.20
2019-05-11T05:52:35.638Z,4.20
2019-05-11T05:53:35.629Z,3.50
2019-05-11T05:54:35.617Z,3.50
2019-05-11T05:55:35.605Z,3.70
2019-05-11T05:56:35.596Z,3.40
2019-05-11T05:57:35.584Z,3.40
2019-05-11T05:58:35.587Z,3.50
2019-05-11T05:59:35.562Z,3.50
2019-05-11T06:00:35.554Z,3.90
2019-05-11T06:01:35.542Z,3.70
2019-05-11T06:02:35.534Z,3.10
2019-05-11T06:03:35.521Z,3.50
2019-05-11T06:04:35.509Z,3.30
2019-05-11T06:05:35.504Z,3.40
2019-05-11T06:06:35.488Z,2.90
2019-05-11T06:07:35.477Z,3.10
2019-05-11T06:08:35.470Z,3.10
2019-05-11T06:09:35.454Z,3.00
2019-05-11T06:10:35.443Z,3.00
2019-05-11T06:11:35.435Z,3.10
2019-05-11T06:12:35.423Z,3.10
2019-05-11T06:13:45.377Z,3.20
2019-05-11T06:14:36.406Z,3.00
2019-05-11T06:15:35.393Z,2.70
2019-05-11T06:16:35.380Z,2.90
2019-05-11T06:17:35.378Z,2.80
2019-05-11T06:18:35.358Z,2.80
2019-05-11T06:19:35.347Z,2.80
2019-05-11T06:20:35.338Z,2.60
2019-05-11T06:21:35.327Z,2.40
2019-05-11T06:22:35.316Z,2.70
2019-05-11T06:23:35.305Z,2.90
2019-05-11T06:24:35.294Z,2.70
2019-05-11T06:25:35.289Z,2.60
2019-05-11T06:26:35.274Z,2.50
2019-05-11T06:27:35.261Z,2.50
2019-05-11T06:28:35.261Z,2.40
2019-05-11T06:29:35.242Z,2.40
2019-05-11T06:30:35.233Z,2.30
2019-05-11T06:31:35.232Z,2.40
2019-05-11T06:32:35.213Z,2.10
2019-05-11T06:33:35.198Z,2.00
2019-05-11T06:34:35.187Z,2.10
2019-05-11T06:35:35.177Z,2.30
2019-05-11T06:36:35.163Z,1.90
2019-05-11T06:37:35.152Z,2.00
2019-05-11T06:38:35.146Z,2.10
2019-05-11T06:39:35.134Z,1.70
2019-05-11T06:40:35.119Z,1.80
2019-05-11T06:41:35.109Z,2.00
2019-05-11T06:42:35.099Z,1.60
2019-05-11T06:43:35.088Z,1.90
2019-05-11T06:44:35.076Z,1.80
2019-05-11T06:45:35.073Z,1.60
2019-05-11T06:46:35.378Z,1.90
2019-05-11T06:47:35.048Z,2.00
2019-05-11T06:48:35.032Z,1.70
2019-05-11T06:49:35.022Z,1.80
2019-05-11T06:50:35.012Z,1.90
2019-05-11T06:51:35.015Z,1.80
2019-05-11T06:52:34.991Z,1.80
2019-05-11T06:53:34.985Z,1.70
2019-05-11T06:54:34.968Z,1.50
2019-05-11T06:55:34.957Z,1.40
2019-05-11T06:56:34.947Z,1.70
2019-05-11T06:57:34.940Z,1.80
2019-05-11T06:58:34.926Z,1.80
2019-05-11T06:59:34.930Z,1.70
2019-05-11T07:00:34.903Z,1.80
2019-05-11T07:01:34.892Z,1.40
2019-05-11T07:02:34.881Z,1.60
2019-05-11T07:03:34.871Z,1.50
2019-05-11T07:04:34.859Z,1.70
2019-05-11T07:05:34.853Z,1.90
2019-05-11T07:06:34.838Z,1.50
2019-05-11T07:07:47.178Z,1.70
2019-05-11T07:08:35.815Z,1.40
2019-05-11T07:09:34.810Z,1.30
2019-05-11T07:10:34.795Z,1.60
2019-05-11T07:11:34.785Z,1.50
2019-05-11T07:12:34.773Z,1.50
2019-05-11T07:13:34.856Z,1.60
2019-05-11T07:14:34.752Z,1.60
2019-05-11T07:15:34.741Z,1.60
2019-05-11T07:16:34.742Z,1.50
2019-05-11T07:17:34.721Z,1.60
2019-05-11T07:18:34.714Z,1.70
2019-05-11T07:19:34.700Z,1.60
2019-05-11T07:20:49.455Z,1.90
2019-05-11T07:21:35.680Z,1.50
2019-05-11T07:22:34.688Z,1.70
2019-05-11T07:23:34.675Z,1.60
2019-05-11T07:24:34.646Z,1.40
2019-05-11T07:25:34.638Z,1.50
2019-05-11T07:26:34.627Z,1.50
2019-05-11T07:27:34.614Z,1.40
2019-05-11T07:28:34.603Z,1.40
2019-05-11T07:29:34.598Z,1.60
2019-05-11T07:30:34.582Z,1.60
2019-05-11T07:31:34.574Z,1.50
2019-05-11T07:32:34.562Z,1.50
2019-05-11T07:33:34.552Z,1.50
2019-05-11T07:34:34.539Z,1.90
2019-05-11T07:35:34.528Z,1.50
2019-05-11T07:36:34.520Z,1.60
2019-05-11T07:37:34.506Z,1.40
2019-05-11T07:38:34.497Z,1.50
2019-05-11T07:39:34.509Z,1.60
2019-05-11T07:40:34.483Z,1.50
2019-05-11T07:41:34.505Z,1.40
2019-05-11T07:42:34.461Z,1.20
2019-05-11T07:43:34.455Z,1.40
2019-05-11T07:44:38.497Z,1.30
2019-05-11T07:45:35.420Z,1.20
2019-05-11T07:46:34.428Z,1.40
2019-05-11T07:47:34.403Z,1.50
2019-05-11T07:48:34.390Z,1.40
2019-05-11T07:49:34.381Z,1.40
2019-05-11T07:50:34.369Z,1.60
2019-05-11T07:51:34.367Z,1.40
2019-05-11T07:52:34.354Z,1.30
2019-05-11T07:53:34.339Z,1.70
2019-05-11T07:54:34.324Z,1.70
2019-05-11T07:55:34.314Z,1.60
2019-05-11T07:56:34.306Z,1.40
2019-05-11T07:57:34.293Z,1.70
2019-05-11T07:58:34.282Z,1.40
2019-05-11T07:59:34.271Z,1.60
2019-05-11T08:00:36.464Z,1.40
2019-05-11T08:01:35.251Z,1.50
2019-05-11T08:02:34.243Z,1.50
2019-05-11T08:03:34.230Z,1.40
2019-05-11T08:04:34.218Z,1.20
2019-05-11T08:05:34.209Z,1.40
2019-05-11T08:06:34.198Z,1.50
2019-05-11T08:07:34.189Z,1.40
2019-05-11T08:08:34.177Z,1.80
2019-05-11T08:09:34.181Z,1.60
2019-05-11T08:10:34.173Z,1.70
2019-05-11T08:11:34.153Z,1.40
2019-05-11T08:12:34.139Z,1.50
2019-05-11T08:13:34.128Z,1.90
2019-05-11T08:14:34.114Z,1.60
2019-05-11T08:15:34.103Z,1.70
2019-05-11T08:16:34.097Z,1.40
2019-05-11T08:17:34.084Z,1.90
2019-05-11T08:18:34.073Z,1.60
2019-05-11T08:19:34.064Z,1.40
2019-05-11T08:20:34.054Z,1.40
2019-05-11T08:21:34.045Z,1.40
2019-05-11T08:22:34.033Z,1.60
2019-05-11T08:23:34.023Z,1.50
2019-05-11T08:24:34.019Z,1.60
2019-05-11T08:25:34.003Z,1.70
2019-05-11T08:26:33.994Z,1.50
2019-05-11T08:27:33.982Z,1.50
2019-05-11T08:28:33.985Z,1.30
2019-05-11T08:29:33.971Z,1.40
2019-05-11T08:30:33.952Z,1.20
2019-05-11T08:31:33.939Z,1.20
2019-05-11T08:32:33.934Z,1.10
2019-05-11T08:33:33.922Z,1.60
2019-05-11T08:34:33.922Z,1.50
2019-05-11T08:35:33.900Z,1.70
2019-05-11T08:36:33.894Z,1.40
2019-05-11T08:37:33.887Z,1.50
2019-05-11T08:38:33.871Z,1.30
2019-05-11T08:39:33.860Z,1.50
2019-05-11T08:40:33.849Z,1.50
2019-05-11T08:41:33.840Z,1.40
2019-05-11T08:42:33.826Z,1.20
2019-05-11T08:43:33.820Z,1.30
2019-05-11T08:44:33.807Z,1.50
2019-05-11T08:45:33.795Z,1.50
2019-05-11T08:46:33.788Z,1.30
2019-05-11T08:47:33.771Z,1.50
2019-05-11T08:48:33.764Z,1.40
2019-05-11T08:49:33.754Z,1.50
2019-05-11T08:50:33.747Z,1.20
2019-05-11T08:51:34.636Z,1.50
2019-05-11T08:52:33.722Z,1.50
2019-05-11T08:53:33.709Z,1.50
2019-05-11T08:54:33.699Z,1.70
2019-05-11T08:55:33.689Z,1.50
2019-05-11T08:56:33.678Z,1.60
2019-05-11T08:57:33.670Z,1.40
2019-05-11T08:58:33.656Z,1.50
2019-05-11T08:59:33.647Z,1.50
2019-05-11T09:00:33.637Z,1.30
2019-05-11T09:01:33.626Z,1.40
2019-05-11T09:02:33.645Z,1.40
2019-05-11T09:03:33.608Z,1.30
2019-05-11T09:04:33.593Z,1.40
2019-05-11T09:05:33.587Z,1.30
2019-05-11T09:06:33.574Z,1.40
2019-05-11T09:07:33.567Z,1.50
2019-05-11T09:08:33.552Z,1.30
2019-05-11T09:09:33.547Z,1.40
2019-05-11T09:10:36.843Z,1.60
2019-05-11T09:11:34.519Z,1.50
2019-05-11T09:12:33.511Z,1.30
2019-05-11T09:13:33.504Z,2.20
2019-05-11T09:14:33.493Z,2.40
2019-05-11T09:15:38.287Z,1.50
2019-05-11T09:16:34.466Z,1.70
2019-05-11T09:17:33.456Z,1.60
2019-05-11T09:18:33.446Z,1.80
2019-05-11T09:19:33.447Z,1.60
2019-05-11T09:20:33.424Z,1.70
2019-05-11T09:21:33.425Z,1.80
2019-05-11T09:22:34.139Z,1.80
2019-05-11T09:23:37.503Z,1.60
2019-05-11T09:24:34.383Z,1.60
2019-05-11T09:25:33.374Z,1.90
2019-05-11T09:26:33.363Z,1.70
2019-05-11T09:27:33.354Z,1.40
2019-05-11T09:28:33.339Z,1.50
2019-05-11T09:29:33.331Z,1.80
2019-05-11T09:30:33.316Z,1.70
2019-05-11T09:31:33.310Z,1.70
2019-05-11T09:32:33.296Z,1.50
2019-05-11T09:33:33.285Z,1.40
2019-05-11T09:34:33.277Z,1.80
2019-05-11T09:35:46.695Z,1.40
2019-05-11T09:36:34.276Z,1.40
2019-05-11T09:37:33.242Z,1.60
2019-05-11T09:38:33.231Z,1.80
2019-05-11T09:39:33.223Z,1.60
2019-05-11T09:40:33.212Z,1.40
2019-05-11T09:41:33.201Z,1.70
2019-05-11T09:42:33.187Z,1.50
2019-05-11T09:43:33.177Z,1.60
2019-05-11T09:44:33.169Z,1.70
2019-05-11T09:45:44.630Z,1.40
2019-05-11T09:46:34.144Z,1.50
2019-05-11T09:47:33.135Z,1.70
2019-05-11T09:48:33.129Z,1.60
2019-05-11T09:49:43.824Z,1.50
2019-05-11T09:50:34.103Z,1.50
2019-05-11T09:51:33.092Z,1.40
2019-05-11T09:52:33.081Z,1.60
2019-05-11T09:53:33.074Z,1.60
2019-05-11T09:54:33.062Z,1.30
2019-05-11T09:55:33.387Z,1.40
2019-05-11T09:56:33.081Z,1.40
2019-05-11T09:57:33.035Z,1.70
2019-05-11T09:58:33.017Z,1.40
2019-05-11T09:59:33.011Z,1.40
2019-05-11T10:00:32.994Z,1.50
2019-05-11T10:01:32.984Z,1.30
2019-05-11T10:02:32.980Z,1.50
2019-05-11T10:03:32.962Z,1.50
2019-05-11T10:04:32.953Z,1.50
2019-05-11T10:05:32.943Z,1.30
2019-05-11T10:06:32.933Z,1.30
2019-05-11T10:07:32.921Z,1.30
2019-05-11T10:08:32.909Z,1.30
2019-05-11T10:09:32.902Z,1.40
2019-05-11T10:10:32.886Z,1.40
2019-05-11T10:11:32.878Z,1.70
2019-05-11T10:12:32.866Z,1.30
2019-05-11T10:13:32.855Z,1.50
2019-05-11T10:14:32.846Z,1.60
2019-05-11T10:15:32.853Z,1.80
2019-05-11T10:16:32.830Z,1.60
2019-05-11T10:17:32.833Z,1.80
2019-05-11T10:18:32.808Z,2.00
2019-05-11T10:19:32.794Z,1.70
2019-05-11T10:20:32.787Z,1.90
2019-05-11T10:21:32.771Z,1.60
2019-05-11T10:22:32.767Z,1.60
2019-05-11T10:23:32.749Z,1.60
2019-05-11T10:24:32.744Z,1.60
2019-05-11T10:25:32.727Z,1.70
2019-05-11T10:26:32.715Z,1.90
2019-05-11T10:27:32.708Z,1.50
2019-05-11T10:28:32.694Z,1.40
2019-05-11T10:29:34.009Z,1.50
2019-05-11T10:30:32.677Z,1.60
2019-05-11T10:31:32.664Z,1.50
2019-05-11T10:32:32.652Z,1.70
2019-05-11T10:33:32.647Z,1.80
2019-05-11T10:34:32.629Z,1.50
2019-05-11T10:35:32.622Z,1.50
2019-05-11T10:36:32.614Z,1.50
2019-05-11T10:37:32.597Z,1.60
2019-05-11T10:38:32.590Z,1.40
2019-05-11T10:39:32.576Z,1.70
2019-05-11T10:40:32.568Z,1.50
2019-05-11T10:41:32.554Z,1.70
2019-05-11T10:42:32.544Z,1.80
2019-05-11T10:43:32.534Z,1.80
2019-05-11T10:44:32.523Z,1.70
2019-05-11T10:45:32.513Z,1.70
2019-05-11T10:46:32.505Z,1.70
2019-05-11T10:47:32.531Z,1.90
2019-05-11T10:48:32.501Z,1.60
2019-05-11T10:49:32.468Z,1.50
2019-05-11T10:50:32.465Z,1.50
2019-05-11T10:51:32.449Z,1.60
2019-05-11T10:52:32.436Z,1.60
2019-05-11T10:53:32.424Z,1.80
2019-05-11T10:54:32.418Z,1.60
2019-05-11T10:55:32.405Z,1.60
2019-05-11T10:56:32.394Z,1.90
2019-05-11T10:57:32.388Z,1.90
2019-05-11T10:58:32.372Z,1.40
2019-05-11T10:59:32.362Z,1.90
2019-05-11T11:00:32.350Z,1.60
2019-05-11T11:01:32.339Z,1.80
2019-05-11T11:02:32.332Z,1.70
2019-05-11T11:03:32.319Z,1.50
2019-05-11T11:04:32.308Z,1.50
2019-05-11T11:05:32.302Z,1.50
2019-05-11T11:06:32.286Z,1.50
2019-05-11T11:07:32.275Z,1.50
2019-05-11T11:08:32.265Z,1.60
2019-05-11T11:09:32.253Z,1.80
2019-05-11T11:10:32.270Z,1.60
2019-05-11T11:11:32.234Z,1.50
2019-05-11T11:12:32.221Z,1.50
2019-05-11T11:13:32.210Z,1.50
2019-05-11T11:14:32.204Z,1.50
2019-05-11T11:15:32.191Z,1.40
2019-05-11T11:16:39.237Z,1.30
2019-05-11T11:17:33.201Z,1.70
2019-05-11T11:18:32.158Z,1.60
2019-05-11T11:19:32.147Z,1.60
2019-05-11T11:20:32.139Z,1.60
2019-05-11T11:21:32.125Z,1.60
2019-05-11T11:22:39.813Z,1.60
2019-05-11T11:23:33.107Z,1.40
2019-05-11T11:24:32.096Z,1.70
2019-05-11T11:25:32.085Z,1.70
2019-05-11T11:26:32.076Z,1.50
2019-05-11T11:27:32.061Z,1.70
2019-05-11T11:28:32.052Z,1.50
2019-05-11T11:29:32.042Z,1.50
2019-05-11T11:30:32.033Z,1.60
2019-05-11T11:31:32.077Z,1.80
2019-05-11T11:32:32.015Z,1.50
2019-05-11T11:33:31.999Z,1.60
2019-05-11T11:34:31.991Z,1.60
2019-05-11T11:35:31.987Z,1.30
2019-05-11T11:36:31.966Z,1.70
2019-05-11T11:37:31.953Z,1.70
2019-05-11T11:38:31.945Z,1.70
2019-05-11T11:39:31.957Z,1.40
2019-05-11T11:40:31.921Z,1.60
2019-05-11T11:41:31.917Z,1.70
2019-05-11T11:42:31.906Z,1.90
2019-05-11T11:43:31.889Z,2.00
2019-05-11T11:44:31.932Z,1.70
2019-05-11T11:45:31.869Z,2.00
2019-05-11T11:46:31.858Z,1.70
2019-05-11T11:47:31.846Z,1.90
2019-05-11T11:48:31.834Z,1.70
2019-05-11T11:49:31.829Z,1.70
2019-05-11T11:50:31.844Z,1.80
2019-05-11T11:51:31.806Z,1.80
2019-05-11T11:52:31.793Z,1.80
2019-05-11T11:53:31.783Z,1.90
2019-05-11T11:54:31.778Z,1.80
2019-05-11T11:55:31.769Z,2.00
2019-05-11T11:56:31.753Z,1.90
2019-05-11T11:57:31.740Z,2.00
2019-05-11T11:58:31.737Z,1.80
2019-05-11T11:59:31.718Z,2.10
2019-05-11T12:00:31.705Z,1.70
2019-05-11T12:01:31.696Z,2.00
2019-05-11T12:02:31.686Z,1.40
2019-05-11T12:03:31.673Z,2.00
2019-05-11T12:04:31.662Z,1.60
2019-05-11T12:05:31.659Z,1.70
2019-05-11T12:06:31.638Z,1.70
2019-05-11T12:07:31.628Z,1.70
2019-05-11T12:08:31.617Z,2.10
2019-05-11T12:09:31.606Z,2.00
2019-05-11T12:10:31.596Z,1.80
2019-05-11T12:11:31.584Z,1.90
2019-05-11T12:12:31.574Z,1.90
2019-05-11T12:13:31.565Z,2.00
2019-05-11T12:14:31.551Z,2.20
2019-05-11T12:15:31.540Z,1.90
2019-05-11T12:16:31.528Z,1.90
2019-05-11T12:17:31.517Z,1.70
2019-05-11T12:18:31.514Z,2.00
2019-05-11T12:19:31.502Z,1.90
2019-05-11T12:20:31.485Z,1.80
2019-05-11T12:21:31.474Z,2.20
2019-05-11T12:22:31.465Z,2.10
2019-05-11T12:23:31.453Z,2.00
2019-05-11T12:24:31.446Z,2.00
2019-05-11T12:25:31.432Z,2.10
2019-05-11T12:26:31.421Z,2.10
2019-05-11T12:27:31.423Z,2.10
2019-05-11T12:28:31.399Z,2.30
2019-05-11T12:29:31.389Z,2.00
2019-05-11T12:30:31.381Z,1.90
2019-05-11T12:31:32.664Z,2.00
2019-05-11T12:32:31.357Z,2.10
2019-05-11T12:33:31.345Z,2.40
2019-05-11T12:34:31.335Z,2.30
2019-05-11T12:35:31.327Z,2.40
2019-05-11T12:36:31.348Z,2.20
2019-05-11T12:37:31.313Z,2.00
2019-05-11T12:38:31.322Z,2.20
2019-05-11T12:39:31.278Z,2.50
2019-05-11T12:40:31.300Z,2.70
2019-05-11T12:41:31.270Z,2.40
2019-05-11T12:42:31.276Z,2.10
2019-05-11T12:43:31.262Z,2.30
2019-05-11T12:44:31.220Z,2.40
2019-05-11T12:45:31.211Z,2.00
2019-05-11T12:46:31.203Z,2.20
2019-05-11T12:47:31.188Z,2.20
2019-05-11T12:48:31.185Z,2.40
2019-05-11T12:49:31.167Z,2.20
2019-05-11T12:50:31.156Z,2.40
2019-05-11T12:51:31.145Z,2.20
2019-05-11T12:52:31.140Z,2.50
2019-05-11T12:53:31.125Z,2.10
2019-05-11T12:54:33.933Z,2.20
2019-05-11T12:55:31.102Z,2.60
2019-05-11T12:56:31.093Z,2.10
2019-05-11T12:57:31.082Z,2.20
2019-05-11T12:58:31.071Z,2.40
2019-05-11T12:59:31.058Z,2.20
2019-05-11T13:00:31.567Z,2.20
2019-05-11T13:01:31.038Z,1.80
2019-05-11T13:02:31.052Z,2.00
2019-05-11T13:03:31.015Z,2.10
2019-05-11T13:04:31.006Z,2.10
2019-05-11T13:05:30.996Z,2.10
2019-05-11T13:06:30.985Z,1.80
2019-05-11T13:07:30.974Z,2.10
2019-05-11T13:08:30.966Z,2.00
2019-05-11T13:09:30.959Z,2.30
2019-05-11T13:10:30.941Z,2.40
2019-05-11T13:11:30.935Z,2.50
2019-05-11T13:12:30.919Z,2.00
2019-05-11T13:13:30.909Z,2.30
2019-05-11T13:14:30.898Z,2.40
2019-05-11T13:15:30.889Z,2.20
2019-05-11T13:16:30.898Z,2.20
2019-05-11T13:17:37.369Z,2.30
2019-05-11T13:18:31.856Z,2.30